Kasur Weather



Kasur's Current Weather

Temprature 18o smoke

smoke

Rain: 0 %

Min Temprature18o
Max Temprature18o
Humidity82
Wind Speed2.71 m/h
Sun Rise06:32:19
Sun Set17:58:11
Current Time: 27-Feb-2020 00:22:04
Lat/Lon: 31.12, 74.45




Kasur's Geo Location



Kasur's Weather Forecast

Time Overall Temp Min Temp Max Temp Humidity Wind Speed Rain
27-Feb-2020 (Thu)
02:00:00 broken clouds 16.340 14.220 16.340 54 2.45 m/h 0 %
05:00:00 overcast clouds 16.240 14.650 16.240 51 2.12 m/h 0 %
08:00:00 scattered clouds 18.280 17.220 18.280 44 2.15 m/h 0 %
11:00:00 scattered clouds 27.380 26.850 27.380 25 1.91 m/h 0 %
14:00:00 few clouds 30.510 30.510 30.510 19 1.54 m/h 0 %
17:00:00 clear sky 28.480 28.480 28.480 22 2.42 m/h 0 %
20:00:00 clear sky 19.370 19.370 19.370 43 3.78 m/h 0 %
23:00:00 clear sky 16.360 16.360 16.360 55 3.25 m/h 0 %
28-Feb-2020 (Fri)
02:00:00 few clouds 15.400 15.400 15.400 54 3.84 m/h 0 %
05:00:00 scattered clouds 13.960 13.960 13.960 56 3.52 m/h 0 %
08:00:00 clear sky 17.520 17.520 17.520 47 3.51 m/h 0 %
11:00:00 scattered clouds 28.310 28.310 28.310 25 3.71 m/h 0 %
14:00:00 overcast clouds 31.410 31.410 31.410 19 3.44 m/h 0 %
17:00:00 overcast clouds 30.470 30.470 30.470 20 3.28 m/h 0 %
20:00:00 light rain 21.390 21.390 21.390 46 5.4 m/h 50 %
23:00:00 light rain 18.240 18.240 18.240 57 4.18 m/h 56 %
29-Feb-2020 (Sat)
02:00:00 light rain 14.160 14.160 14.160 88 5.14 m/h 113 %
05:00:00 light rain 13.770 13.770 13.770 90 5.04 m/h 13 %
08:00:00 overcast clouds 16.160 16.160 16.160 82 5.6 m/h 0 %
11:00:00 overcast clouds 27.260 27.260 27.260 33 8.06 m/h 0 %
14:00:00 broken clouds 29.800 29.800 29.800 26 5.92 m/h 0 %
17:00:00 light rain 16.920 16.920 16.920 84 9.27 m/h 269 %
20:00:00 moderate rain 15.740 15.740 15.740 84 8.62 m/h 400 %
23:00:00 broken clouds 14.090 14.090 14.090 90 3.55 m/h 0 %
01-Mar-2020 (Sun)
02:00:00 clear sky 13.800 13.800 13.800 92 1.92 m/h 0 %
05:00:00 clear sky 12.180 12.180 12.180 93 1.18 m/h 0 %
08:00:00 clear sky 15.470 15.470 15.470 83 1.07 m/h 0 %
11:00:00 clear sky 25.580 25.580 25.580 43 0.62 m/h 0 %
14:00:00 clear sky 28.990 28.990 28.990 32 1.09 m/h 0 %
17:00:00 clear sky 26.720 26.720 26.720 36 2.95 m/h 0 %
20:00:00 clear sky 19.110 19.110 19.110 61 2.83 m/h 0 %
23:00:00 clear sky 17.350 17.350 17.350 63 2.65 m/h 0 %
02-Mar-2020 (Mon)
02:00:00 clear sky 15.140 15.140 15.140 70 0.8 m/h 0 %
05:00:00 clear sky 14.170 14.170 14.170 70 1.66 m/h 0 %
08:00:00 few clouds 18.850 18.850 18.850 53 1.22 m/h 0 %
11:00:00 few clouds 28.600 28.600 28.600 29 0.84 m/h 0 %
14:00:00 scattered clouds 30.720 30.720 30.720 21 1.12 m/h 0 %
17:00:00 scattered clouds 26.920 26.920 26.920 29 3.39 m/h 0 %
20:00:00 overcast clouds 22.000 22.000 22.000 41 2.44 m/h 0 %
23:00:00 broken clouds 17.900 17.900 17.900 51 2.33 m/h 0 %

Famous Cities (61)